Time;durP1;ratioP1;P1;durP2;ratioP2;P2;SDS_P1;SDS_P2;PMS_P1;PMS_P2;Temp;Humidity;BMP_temperature;BMP_pressure;BME280_temperature;BME280_humidity;BME280_pressure;Samples;Min_cycle;Max_cycle;Signal;HPM_P1;HPM_P2
2023/12/31 00:00:58;;;;;;;3.03;0.90;;;9.60;99.90;;;;;;5028315;28;20022;-70
2023/12/31 00:03:23;;;;;;;3.17;0.95;;;9.60;99.90;;;;;;5028362;28;20479;-70
2023/12/31 00:05:49;;;;;;;2.45;1.05;;;9.60;99.90;;;;;;5027952;28;20032;-71
2023/12/31 00:08:15;;;;;;;5.80;1.08;;;9.70;99.90;;;;;;5028442;28;20113;-70
2023/12/31 00:10:40;;;;;;;6.13;1.15;;;9.70;99.90;;;;;;5009919;28;20036;-71
2023/12/31 00:13:06;;;;;;;3.78;1.10;;;9.70;99.90;;;;;;5010508;28;20025;-71
2023/12/31 00:15:32;;;;;;;3.63;1.00;;;9.80;99.90;;;;;;5027709;28;20495;-70
2023/12/31 00:17:58;;;;;;;1.73;1.00;;;9.90;99.90;;;;;;5010331;28;20041;-70
2023/12/31 00:20:23;;;;;;;4.55;1.00;;;9.90;99.90;;;;;;5027724;28;20021;-70
2023/12/31 00:22:49;;;;;;;3.00;0.80;;;9.90;99.90;;;;;;5027795;28;20022;-71
2023/12/31 00:25:15;;;;;;;3.53;0.90;;;10.00;99.90;;;;;;5027801;28;20025;-70
2023/12/31 00:27:41;;;;;;;3.80;1.00;;;10.00;99.90;;;;;;5027957;28;20087;-71
2023/12/31 00:30:08;;;;;;;3.08;0.98;;;10.00;99.90;;;;;;5027586;28;20026;-71
2023/12/31 00:32:33;;;;;;;2.75;0.90;;;10.00;99.90;;;;;;5027950;28;20399;-71
2023/12/31 00:34:59;;;;;;;3.53;0.95;;;10.00;99.90;;;;;;5027653;28;20031;-71
2023/12/31 00:37:25;;;;;;;1.98;0.93;;;10.00;99.90;;;;;;5009993;28;20123;-71
2023/12/31 00:39:51;;;;;;;2.83;0.88;;;10.10;99.90;;;;;;5027607;28;20029;-71
2023/12/31 00:42:17;;;;;;;1.10;0.90;;;10.10;99.90;;;;;;5031750;28;20071;-70
2023/12/31 00:44:42;;;;;;;2.92;0.80;;;10.10;99.90;;;;;;5013727;28;20528;-71
2023/12/31 00:47:08;;;;;;;3.40;0.70;;;10.10;99.90;;;;;;5032079;28;20029;-71
2023/12/31 00:49:34;;;;;;;3.20;0.77;;;10.10;99.90;;;;;;5069787;28;20481;-71
2023/12/31 00:52:00;;;;;;;1.40;0.60;;;10.20;99.90;;;;;;5071334;28;20064;-71
2023/12/31 00:54:26;;;;;;;3.03;0.82;;;10.20;99.90;;;;;;5071864;28;20071;-71
2023/12/31 00:56:51;;;;;;;2.25;0.90;;;10.20;99.90;;;;;;5071225;28;20060;-71
2023/12/31 00:59:17;;;;;;;2.67;0.90;;;10.20;99.90;;;;;;5071881;28;20028;-71
2023/12/31 01:01:43;;;;;;;1.27;0.82;;;10.20;99.90;;;;;;5071341;28;20027;-71
2023/12/31 01:04:08;;;;;;;3.22;0.77;;;10.20;99.90;;;;;;5053852;28;20073;-71
2023/12/31 01:06:34;;;;;;;2.58;1.20;;;10.20;99.90;;;;;;5071360;28;20477;-72
2023/12/31 01:09:00;;;;;;;1.45;0.73;;;10.30;99.90;;;;;;5071299;28;20455;-70
2023/12/31 01:11:27;;;;;;;1.42;0.68;;;10.30;99.90;;;;;;5071311;28;20024;-71
2023/12/31 01:13:53;;;;;;;1.80;0.90;;;10.30;99.90;;;;;;5053262;28;20024;-71
2023/12/31 01:16:18;;;;;;;3.17;0.85;;;10.30;99.90;;;;;;5070833;28;20115;-71
2023/12/31 01:18:44;;;;;;;2.28;0.80;;;10.30;99.90;;;;;;5071183;28;20103;-71
2023/12/31 01:21:10;;;;;;;1.83;0.77;;;10.30;99.90;;;;;;5070800;28;20028;-71
2023/12/31 01:23:35;;;;;;;2.33;0.90;;;10.30;99.90;;;;;;5071190;28;20017;-71
2023/12/31 01:26:02;;;;;;;6.30;1.10;;;10.30;99.90;;;;;;5052845;28;20020;-70
2023/12/31 01:28:27;;;;;;;1.20;0.80;;;10.30;99.90;;;;;;5071019;28;20027;-71
2023/12/31 01:30:53;;;;;;;2.33;0.73;;;10.30;99.90;;;;;;5070494;28;20025;-71
2023/12/31 01:33:19;;;;;;;1.40;0.60;;;10.30;99.90;;;;;;5071330;28;20024;-71
2023/12/31 01:35:44;;;;;;;1.20;0.73;;;10.30;99.90;;;;;;5070679;28;20021;-72
2023/12/31 01:38:10;;;;;;;4.30;0.95;;;10.30;99.90;;;;;;5049457;28;20478;-72
2023/12/31 01:40:36;;;;;;;1.88;0.90;;;10.30;99.90;;;;;;5049232;28;20025;-70
2023/12/31 01:43:02;;;;;;;5.25;0.90;;;10.20;99.90;;;;;;5050664;28;20482;-72
2023/12/31 01:45:28;;;;;;;4.15;1.17;;;10.20;99.90;;;;;;5050614;28;20044;-72
2023/12/31 01:47:54;;;;;;;3.13;1.20;;;10.20;99.90;;;;;;5050699;28;20025;-71
2023/12/31 01:50:23;;;;;;;3.83;0.95;;;10.20;99.90;;;;;;5050517;28;20037;-71
2023/12/31 01:52:52;;;;;;;1.02;0.90;;;10.10;99.90;;;;;;5049979;28;20155;-71
2023/12/31 01:55:17;;;;;;;3.72;1.02;;;10.00;99.90;;;;;;5050519;28;20108;-71
2023/12/31 01:57:43;;;;;;;2.50;1.20;;;10.00;99.90;;;;;;5050273;28;20542;-71
2023/12/31 02:00:10;;;;;;;3.42;1.00;;;10.00;99.90;;;;;;5050412;28;20025;-71
2023/12/31 02:02:36;;;;;;;1.52;1.00;;;10.00;99.90;;;;;;5049614;28;20123;-69
2023/12/31 02:05:02;;;;;;;3.15;1.48;;;9.90;99.90;;;;;;5050146;28;20151;-70
2023/12/31 02:07:28;;;;;;;3.20;1.10;;;9.90;99.90;;;;;;5048925;28;20438;-70
2023/12/31 02:09:54;;;;;;;2.53;1.15;;;9.90;99.90;;;;;;5050307;28;20025;-72
2023/12/31 02:12:20;;;;;;;2.72;1.17;;;9.80;99.90;;;;;;5049973;28;20757;-72
2023/12/31 02:14:45;;;;;;;2.95;1.00;;;9.80;99.90;;;;;;5050129;28;20029;-71
2023/12/31 02:17:11;;;;;;;2.25;1.10;;;9.80;99.90;;;;;;5050128;28;20017;-71
2023/12/31 02:19:37;;;;;;;3.33;0.93;;;9.70;99.90;;;;;;5050445;28;20068;-70
2023/12/31 02:22:03;;;;;;;3.83;1.20;;;9.70;99.90;;;;;;5048379;28;20628;-71
2023/12/31 02:24:39;;;;;;;5.18;1.27;;;9.70;99.90;;;;;;5049107;28;20039;-71
2023/12/31 02:27:05;;;;;;;3.58;1.25;;;9.70;99.90;;;;;;5049931;28;20021;-71
2023/12/31 02:29:31;;;;;;;3.75;1.13;;;9.60;99.90;;;;;;5050244;28;20079;-71
2023/12/31 02:31:56;;;;;;;2.83;1.02;;;9.70;99.90;;;;;;5049542;28;20029;-71
2023/12/31 02:34:22;;;;;;;2.35;1.20;;;9.60;99.90;;;;;;5050351;28;20075;-71
2023/12/31 02:36:48;;;;;;;3.40;1.35;;;9.60;99.90;;;;;;5048098;28;20048;-71
2023/12/31 02:39:13;;;;;;;2.85;1.02;;;9.60;99.90;;;;;;5069301;28;20048;-71
2023/12/31 02:41:39;;;;;;;2.75;1.20;;;9.60;99.90;;;;;;5069118;28;20111;-70
2023/12/31 02:44:04;;;;;;;1.33;1.10;;;9.60;99.90;;;;;;5069868;28;20059;-70
2023/12/31 02:46:30;;;;;;;3.10;1.48;;;9.60;99.90;;;;;;5051324;28;20035;-71
2023/12/31 02:48:56;;;;;;;2.80;1.48;;;9.60;99.90;;;;;;5069802;28;20401;-71
2023/12/31 02:51:21;;;;;;;13.93;1.85;;;9.50;99.90;;;;;;5069266;28;20036;-71
2023/12/31 02:53:47;;;;;;;6.78;1.35;;;9.60;99.90;;;;;;5069473;28;20074;-71
2023/12/31 02:56:12;;;;;;;3.70;1.42;;;9.50;99.90;;;;;;5069111;28;20138;-71
2023/12/31 02:58:38;;;;;;;2.30;1.00;;;9.50;99.90;;;;;;5069458;28;20059;-71
2023/12/31 03:01:04;;;;;;;4.35;1.20;;;9.50;99.90;;;;;;5069125;28;20025;-71
2023/12/31 03:03:29;;;;;;;3.80;1.35;;;9.50;99.90;;;;;;5051076;28;20024;-71
2023/12/31 03:05:55;;;;;;;2.80;1.40;;;9.50;99.90;;;;;;5068090;28;20044;-71
2023/12/31 03:08:21;;;;;;;3.13;1.55;;;9.50;99.90;;;;;;5069255;28;20035;-71
2023/12/31 03:10:47;;;;;;;2.42;1.20;;;9.50;99.90;;;;;;5068853;28;20111;-71
2023/12/31 03:13:13;;;;;;;2.58;1.10;;;9.50;99.90;;;;;;5069057;28;20134;-71
2023/12/31 03:15:38;;;;;;;1.98;1.23;;;9.50;99.90;;;;;;5069004;28;20098;-71
2023/12/31 03:18:04;;;;;;;4.07;1.50;;;9.50;99.90;;;;;;5069102;28;20528;-71
2023/12/31 03:20:30;;;;;;;2.65;1.20;;;9.50;99.90;;;;;;5050947;28;20032;-71
2023/12/31 03:22:55;;;;;;;2.60;1.10;;;9.50;99.90;;;;;;5068864;28;20059;-71
2023/12/31 03:25:26;;;;;;;1.38;1.10;;;9.60;99.90;;;;;;5068587;28;20016;-71
2023/12/31 03:27:52;;;;;;;2.78;1.20;;;9.50;99.90;;;;;;5050894;28;20017;-71
2023/12/31 03:30:19;;;;;;;4.40;1.13;;;9.60;99.90;;;;;;5068506;28;20435;-71
2023/12/31 03:32:45;;;;;;;2.17;1.13;;;9.60;99.90;;;;;;5068697;28;20024;-71
2023/12/31 03:35:10;;;;;;;1.60;1.00;;;9.50;99.90;;;;;;5068924;28;20437;-71
2023/12/31 03:37:36;;;;;;;2.42;1.30;;;9.60;99.90;;;;;;5068527;28;20445;-71
2023/12/31 03:40:03;;;;;;;3.42;1.30;;;9.60;99.90;;;;;;5068616;28;20189;-70
2023/12/31 03:42:30;;;;;;;2.65;1.17;;;9.60;99.90;;;;;;5068616;28;20345;-71
2023/12/31 03:44:55;;;;;;;1.83;1.20;;;9.60;99.90;;;;;;5068412;28;20023;-71
2023/12/31 03:47:21;;;;;;;1.90;1.10;;;9.60;99.90;;;;;;5068115;28;20028;-71
2023/12/31 03:49:46;;;;;;;2.80;1.10;;;9.60;99.90;;;;;;5068356;28;20574;-71
2023/12/31 03:52:12;;;;;;;2.72;0.98;;;9.60;99.90;;;;;;5068260;28;20085;-71
2023/12/31 03:54:41;;;;;;;2.80;1.50;;;9.60;99.90;;;;;;5068631;28;20477;-71
2023/12/31 03:57:07;;;;;;;4.03;1.20;;;9.50;99.90;;;;;;5067825;28;20032;-71
2023/12/31 03:59:32;;;;;;;2.08;1.10;;;9.60;99.90;;;;;;5068541;28;20017;-71
2023/12/31 04:01:58;;;;;;;1.92;1.08;;;9.50;99.90;;;;;;5067871;28;20016;-71
2023/12/31 04:04:27;;;;;;;3.88;1.40;;;9.60;99.90;;;;;;5068449;28;20020;-71
2023/12/31 04:06:52;;;;;;;3.30;1.20;;;9.50;99.90;;;;;;5049879;28;20390;-71
2023/12/31 04:09:18;;;;;;;2.65;1.10;;;9.50;99.90;;;;;;5068243;28;20028;-71
2023/12/31 04:11:44;;;;;;;1.83;1.10;;;9.50;99.90;;;;;;5067668;28;20178;-71
2023/12/31 04:14:09;;;;;;;3.78;1.02;;;9.50;99.90;;;;;;5068243;28;20508;-71
2023/12/31 04:16:35;;;;;;;2.42;1.20;;;9.50;99.90;;;;;;5067456;28;20040;-71
2023/12/31 04:19:00;;;;;;;4.45;1.30;;;9.40;99.90;;;;;;5067931;28;20028;-71
2023/12/31 04:21:26;;;;;;;2.80;1.02;;;9.40;99.90;;;;;;5049575;28;20476;-71
2023/12/31 04:23:52;;;;;;;2.55;1.00;;;9.50;99.90;;;;;;5049965;28;20083;-71
2023/12/31 04:26:18;;;;;;;4.40;1.92;;;9.40;99.90;;;;;;5067512;28;20078;-71
2023/12/31 04:28:43;;;;;;;3.63;1.40;;;9.40;99.90;;;;;;5068395;28;20024;-71
2023/12/31 04:31:09;;;;;;;3.45;1.50;;;9.40;99.90;;;;;;5067818;28;20442;-71
2023/12/31 04:33:35;;;;;;;5.35;2.05;;;9.40;99.90;;;;;;5067770;28;20470;-71
2023/12/31 04:36:05;;;;;;;11.90;4.95;;;9.40;99.90;;;;;;5067583;28;20055;-71
2023/12/31 04:38:32;;;;;;;40.67;16.80;;;9.40;99.90;;;;;;5067811;28;20036;-71
2023/12/31 04:40:58;;;;;;;49.03;18.10;;;9.40;99.90;;;;;;5067487;28;20020;-71
2023/12/31 04:43:23;;;;;;;48.65;17.30;;;9.40;99.90;;;;;;5067923;28;20066;-71
2023/12/31 04:45:49;;;;;;;40.67;15.73;;;9.40;99.90;;;;;;5067378;28;20021;-71
2023/12/31 04:48:14;;;;;;;31.35;10.70;;;9.40;99.90;;;;;;5067718;28;20029;-71
2023/12/31 04:50:42;;;;;;;33.40;12.40;;;9.30;99.90;;;;;;5067168;28;20115;-71
2023/12/31 04:53:08;;;;;;;43.03;16.60;;;9.30;99.90;;;;;;5067766;28;20039;-71
2023/12/31 04:55:33;;;;;;;42.38;17.58;;;9.30;99.90;;;;;;5067453;28;20033;-71
2023/12/31 04:57:59;;;;;;;35.85;14.35;;;9.30;99.90;;;;;;5067559;28;20078;-71
2023/12/31 05:00:25;;;;;;;39.28;16.05;;;9.30;99.90;;;;;;5067802;28;20021;-71
2023/12/31 05:02:51;;;;;;;35.78;14.10;;;9.30;99.90;;;;;;5067508;28;20178;-71
2023/12/31 05:05:16;;;;;;;31.67;12.90;;;9.30;99.90;;;;;;5067843;28;20073;-71
2023/12/31 05:07:42;;;;;;;28.92;11.25;;;9.30;99.90;;;;;;5067349;28;20024;-71
2023/12/31 05:10:08;;;;;;;16.63;6.20;;;9.30;99.90;;;;;;5067584;28;20033;-71
2023/12/31 05:12:34;;;;;;;12.82;5.32;;;9.30;99.90;;;;;;5067352;28;20017;-71
2023/12/31 05:14:59;;;;;;;26.83;10.48;;;9.30;99.90;;;;;;5067614;28;20039;-71
2023/12/31 05:17:25;;;;;;;17.10;7.30;;;9.30;99.90;;;;;;5067174;28;20028;-71
2023/12/31 05:19:52;;;;;;;5.82;2.83;;;9.30;99.90;;;;;;5067297;28;20082;-71
2023/12/31 05:22:18;;;;;;;5.25;2.47;;;9.30;99.90;;;;;;5067195;28;20040;-71
2023/12/31 05:24:44;;;;;;;5.40;2.70;;;9.30;99.90;;;;;;5067408;28;20445;-71
2023/12/31 05:27:09;;;;;;;5.07;2.55;;;9.30;99.90;;;;;;5067396;28;20044;-71
2023/12/31 05:29:35;;;;;;;9.90;3.20;;;9.30;99.90;;;;;;5071254;28;20554;-71
2023/12/31 05:32:00;;;;;;;9.50;3.45;;;9.30;99.90;;;;;;5052585;28;20485;-71
2023/12/31 05:34:26;;;;;;;5.00;1.77;;;9.30;99.90;;;;;;5071206;28;20056;-71
2023/12/31 05:36:52;;;;;;;4.63;1.80;;;9.30;99.90;;;;;;5070485;28;20486;-71
2023/12/31 05:39:18;;;;;;;4.35;2.00;;;9.30;99.90;;;;;;5070774;28;20078;-72
2023/12/31 05:41:43;;;;;;;6.85;2.58;;;9.30;99.90;;;;;;5070478;28;20157;-71
2023/12/31 05:44:09;;;;;;;4.90;2.17;;;9.30;99.90;;;;;;5071093;28;20020;-71
2023/12/31 05:46:35;;;;;;;3.58;2.17;;;9.30;99.90;;;;;;5070504;28;20400;-71
2023/12/31 05:49:01;;;;;;;5.03;2.17;;;9.30;99.90;;;;;;5070813;28;20078;-71
2023/12/31 05:51:26;;;;;;;3.70;2.10;;;9.30;99.90;;;;;;5070618;28;20434;-71
2023/12/31 05:53:52;;;;;;;4.00;2.47;;;9.30;99.90;;;;;;5052643;28;20054;-71
2023/12/31 05:56:18;;;;;;;5.25;2.38;;;9.30;99.90;;;;;;5070252;28;20375;-72
2023/12/31 05:58:46;;;;;;;4.40;2.30;;;9.30;99.90;;;;;;5070761;28;20029;-71
2023/12/31 06:01:12;;;;;;;4.00;2.40;;;9.30;99.90;;;;;;5052345;28;20046;-71
2023/12/31 06:03:38;;;;;;;7.00;3.03;;;9.30;99.90;;;;;;5052534;28;20020;-71
2023/12/31 06:06:04;;;;;;;4.50;2.40;;;9.40;99.90;;;;;;5070165;28;20021;-71
2023/12/31 06:08:29;;;;;;;8.10;3.10;;;9.40;99.90;;;;;;5070363;28;20025;-71
2023/12/31 06:10:55;;;;;;;7.55;3.08;;;9.40;99.90;;;;;;5069799;28;20428;-70
2023/12/31 06:13:21;;;;;;;4.22;2.85;;;9.40;99.90;;;;;;5070174;28;20025;-70
2023/12/31 06:15:47;;;;;;;4.25;2.35;;;9.50;99.90;;;;;;5070206;28;20074;-70
2023/12/31 06:18:12;;;;;;;4.07;2.58;;;9.50;99.90;;;;;;5070103;28;20384;-70
2023/12/31 06:20:38;;;;;;;5.75;2.40;;;9.50;99.90;;;;;;5070468;28;20074;-70
2023/12/31 06:23:03;;;;;;;3.97;2.38;;;9.50;99.90;;;;;;5069894;28;20393;-70
2023/12/31 06:25:29;;;;;;;6.18;2.50;;;9.50;99.90;;;;;;5069943;28;20031;-70
2023/12/31 06:27:57;;;;;;;3.95;2.50;;;9.60;99.90;;;;;;5069602;28;20655;-70
2023/12/31 06:30:22;;;;;;;3.90;2.75;;;9.50;99.90;;;;;;5059249;28;20020;-70
2023/12/31 06:32:48;;;;;;;4.03;2.20;;;9.60;99.90;;;;;;5049489;28;20486;-70
2023/12/31 06:35:14;;;;;;;4.38;2.50;;;9.60;99.90;;;;;;5032023;28;20158;-70
2023/12/31 06:37:40;;;;;;;4.10;2.60;;;9.60;99.90;;;;;;5049378;28;20456;-71
2023/12/31 06:40:08;;;;;;;3.55;2.35;;;9.60;99.90;;;;;;5049654;28;20021;-71
2023/12/31 06:42:33;;;;;;;4.70;2.80;;;9.60;99.90;;;;;;5049488;28;20025;-71
2023/12/31 06:44:59;;;;;;;4.90;2.67;;;9.70;99.90;;;;;;5049794;28;20032;-70
2023/12/31 06:47:24;;;;;;;4.13;2.50;;;9.70;99.90;;;;;;5049404;28;20449;-71
2023/12/31 06:49:52;;;;;;;3.28;2.13;;;9.70;99.90;;;;;;5049643;28;20501;-73
2023/12/31 06:52:18;;;;;;;5.45;2.40;;;9.70;99.90;;;;;;5049278;28;20051;-73
2023/12/31 06:54:43;;;;;;;6.20;2.53;;;9.70;99.90;;;;;;5049286;28;20059;-71
2023/12/31 06:57:09;;;;;;;7.57;2.95;;;9.70;99.90;;;;;;5049585;28;20025;-71
2023/12/31 06:59:35;;;;;;;6.03;2.60;;;9.70;99.90;;;;;;5031623;28;20024;-71
2023/12/31 07:02:00;;;;;;;9.75;2.95;;;9.70;99.90;;;;;;5048840;28;20490;-71
2023/12/31 07:04:26;;;;;;;3.97;2.55;;;9.70;99.90;;;;;;5049525;28;20044;-72
2023/12/31 07:06:52;;;;;;;4.47;2.22;;;9.70;99.90;;;;;;5049057;28;20059;-71
2023/12/31 07:09:17;;;;;;;5.88;2.85;;;9.70;99.90;;;;;;5049153;28;20524;-71
2023/12/31 07:11:43;;;;;;;3.30;2.40;;;9.70;99.90;;;;;;5048967;28;20036;-71
2023/12/31 07:14:08;;;;;;;3.50;2.42;;;9.70;99.90;;;;;;5049368;28;20509;-72
2023/12/31 07:16:34;;;;;;;4.43;2.50;;;9.70;99.90;;;;;;5048321;28;20056;-71
2023/12/31 07:19:00;;;;;;;4.53;2.30;;;9.70;99.90;;;;;;5048845;28;20029;-71
2023/12/31 07:21:25;;;;;;;5.32;2.53;;;9.80;99.90;;;;;;5048757;28;20029;-71
2023/12/31 07:23:51;;;;;;;5.63;2.60;;;9.70;99.90;;;;;;5025850;28;20376;-71
2023/12/31 07:26:28;;;;;;;3.80;2.45;;;9.70;99.90;;;;;;5011021;28;20341;-71
2023/12/31 07:28:54;;;;;;;4.65;2.75;;;9.70;99.90;;;;;;5028959;28;20087;-71
2023/12/31 07:31:23;;;;;;;4.13;2.60;;;9.70;99.90;;;;;;5028192;28;20028;-71
2023/12/31 07:33:50;;;;;;;5.60;2.95;;;9.70;99.90;;;;;;5028968;28;20033;-71
2023/12/31 07:36:16;;;;;;;6.70;2.67;;;9.70;99.90;;;;;;5028883;28;20014;-71
2023/12/31 07:38:44;;;;;;;5.40;2.38;;;9.80;99.90;;;;;;5044020;28;20506;-72
2023/12/31 07:41:13;;;;;;;4.78;2.67;;;9.70;99.90;;;;;;5047818;28;20029;-71
2023/12/31 07:43:39;;;;;;;5.13;2.45;;;9.70;99.90;;;;;;5049031;28;20029;-71
2023/12/31 07:46:05;;;;;;;3.25;2.10;;;9.70;99.90;;;;;;5025361;28;20017;-71
2023/12/31 07:48:31;;;;;;;3.67;2.50;;;9.70;99.90;;;;;;5038283;28;20026;-70
2023/12/31 07:50:57;;;;;;;5.80;2.80;;;9.70;99.90;;;;;;5037934;28;20505;-71
2023/12/31 07:53:22;;;;;;;5.05;2.83;;;9.70;99.90;;;;;;5038159;28;20394;-71
2023/12/31 07:55:48;;;;;;;5.18;2.70;;;9.70;99.90;;;;;;5036783;28;20025;-71
2023/12/31 07:58:13;;;;;;;7.03;2.90;;;9.70;99.90;;;;;;5038909;28;20522;-72
2023/12/31 08:00:39;;;;;;;4.60;2.42;;;9.70;99.90;;;;;;5036762;28;20483;-71
2023/12/31 08:03:05;;;;;;;4.18;2.50;;;9.80;99.90;;;;;;5036116;28;20110;-71
2023/12/31 08:05:32;;;;;;;3.70;2.47;;;9.80;99.90;;;;;;5036565;28;20494;-71
2023/12/31 08:07:58;;;;;;;5.28;2.58;;;9.80;99.90;;;;;;5035174;28;20044;-71
2023/12/31 08:10:23;;;;;;;5.10;2.80;;;9.80;99.90;;;;;;5040214;28;20025;-71
2023/12/31 08:12:49;;;;;;;5.88;3.08;;;9.80;99.90;;;;;;5035798;28;20475;-70
2023/12/31 08:15:15;;;;;;;5.53;2.88;;;9.80;99.90;;;;;;5035167;28;20025;-71
2023/12/31 08:17:41;;;;;;;5.03;2.70;;;9.80;99.90;;;;;;5038871;28;20037;-70
2023/12/31 08:20:07;;;;;;;4.93;2.80;;;9.80;99.90;;;;;;5034055;28;20060;-70
2023/12/31 08:22:33;;;;;;;4.72;2.53;;;9.80;99.90;;;;;;5024014;28;20387;-70
2023/12/31 08:25:00;;;;;;;5.00;2.75;;;9.80;99.90;;;;;;5045795;28;20024;-70
2023/12/31 08:27:25;;;;;;;7.38;2.80;;;9.80;99.90;;;;;;5045614;28;20100;-70
2023/12/31 08:29:51;;;;;;;4.45;2.75;;;9.80;99.90;;;;;;5036817;28;20022;-70
2023/12/31 08:32:18;;;;;;;7.05;2.80;;;9.80;99.90;;;;;;5036113;28;20111;-70
2023/12/31 08:34:45;;;;;;;4.30;2.78;;;9.80;99.90;;;;;;5035889;28;20156;-71
2023/12/31 08:37:11;;;;;;;4.15;2.60;;;9.80;99.90;;;;;;5031903;28;20037;-71
2023/12/31 08:39:41;;;;;;;6.18;2.97;;;9.90;99.90;;;;;;5014459;28;20593;-71
2023/12/31 08:42:06;;;;;;;5.28;3.00;;;9.90;99.90;;;;;;5021783;28;20037;-71
2023/12/31 08:44:32;;;;;;;4.25;2.78;;;9.90;99.90;;;;;;5039324;28;20017;-71
2023/12/31 08:46:58;;;;;;;6.43;2.80;;;10.00;99.90;;;;;;5038561;28;20406;-70
2023/12/31 08:49:26;;;;;;;5.88;2.88;;;10.00;99.90;;;;;;5018061;28;20021;-71
2023/12/31 08:51:51;;;;;;;4.28;2.80;;;10.00;99.90;;;;;;5022261;28;20075;-71
2023/12/31 08:54:17;;;;;;;4.78;2.70;;;10.10;99.90;;;;;;5010202;28;20025;-70
2023/12/31 08:56:43;;;;;;;6.72;2.95;;;10.10;99.90;;;;;;5009361;28;20418;-71
2023/12/31 08:59:08;;;;;;;4.90;3.00;;;10.20;99.90;;;;;;5021098;28;20364;-70
2023/12/31 09:01:34;;;;;;;6.03;3.22;;;10.20;99.90;;;;;;5022368;28;20022;-70
2023/12/31 09:04:00;;;;;;;5.30;3.50;;;10.30;99.90;;;;;;5042620;28;20412;-70
2023/12/31 09:06:25;;;;;;;5.55;3.15;;;10.30;99.90;;;;;;5049291;28;20041;-71
2023/12/31 09:08:51;;;;;;;4.38;2.65;;;10.30;99.90;;;;;;5049463;28;20070;-71
2023/12/31 09:11:17;;;;;;;5.13;3.20;;;10.30;99.90;;;;;;5066311;28;20033;-71
2023/12/31 09:13:42;;;;;;;5.35;2.80;;;10.30;99.90;;;;;;5046313;28;20496;-71
2023/12/31 09:16:08;;;;;;;5.20;3.00;;;10.30;99.90;;;;;;5039228;28;20052;-71
2023/12/31 09:18:33;;;;;;;5.13;2.70;;;10.30;99.90;;;;;;5040805;28;20085;-70
2023/12/31 09:20:59;;;;;;;5.00;2.92;;;10.40;99.90;;;;;;5050171;28;20444;-70
2023/12/31 09:23:25;;;;;;;4.28;2.95;;;10.40;99.90;;;;;;5062133;28;20028;-70
2023/12/31 09:25:53;;;;;;;4.60;2.83;;;10.50;99.90;;;;;;5055736;28;20020;-71
2023/12/31 09:28:19;;;;;;;5.22;2.92;;;10.50;99.90;;;;;;5058167;28;20028;-70
2023/12/31 09:30:44;;;;;;;5.13;3.25;;;10.60;99.90;;;;;;5063714;28;20024;-71
2023/12/31 09:33:11;;;;;;;5.60;2.92;;;10.60;99.90;;;;;;5049257;28;20033;-71
2023/12/31 09:35:36;;;;;;;5.53;3.35;;;10.60;99.90;;;;;;5049868;28;20030;-70
2023/12/31 09:38:02;;;;;;;5.57;3.10;;;10.60;99.90;;;;;;5068276;28;20113;-70
2023/12/31 09:40:28;;;;;;;4.93;3.15;;;10.60;99.90;;;;;;5043926;28;20036;-70
2023/12/31 09:42:55;;;;;;;5.20;2.67;;;10.60;99.90;;;;;;5055135;28;20478;-70
2023/12/31 09:45:23;;;;;;;3.75;2.30;;;10.60;99.90;;;;;;5058515;28;20363;-71
2023/12/31 09:47:50;;;;;;;4.50;2.70;;;10.50;99.90;;;;;;5054796;28;20021;-70
2023/12/31 09:50:18;;;;;;;4.85;2.63;;;10.50;99.90;;;;;;5059795;28;20421;-71
2023/12/31 09:52:48;;;;;;;4.18;2.30;;;10.50;99.90;;;;;;5044092;28;20316;-70
2023/12/31 09:55:18;;;;;;;4.40;2.60;;;10.50;99.90;;;;;;5048786;28;20025;-70
2023/12/31 09:57:46;;;;;;;3.77;2.30;;;10.60;99.90;;;;;;5024829;28;20033;-70
2023/12/31 10:00:12;;;;;;;2.58;1.88;;;10.60;99.90;;;;;;5049361;28;20108;-70
2023/12/31 10:02:38;;;;;;;4.15;1.98;;;10.70;99.90;;;;;;5054298;28;20021;-70
2023/12/31 10:05:06;;;;;;;3.83;2.03;;;10.70;99.90;;;;;;5037902;28;20013;-71
2023/12/31 10:07:32;;;;;;;4.53;1.73;;;10.70;99.90;;;;;;5020858;28;20040;-71
2023/12/31 10:09:59;;;;;;;3.60;2.00;;;10.70;99.90;;;;;;5057820;28;20078;-71
2023/12/31 10:12:27;;;;;;;2.45;1.60;;;10.70;99.90;;;;;;5048072;28;20061;-70
2023/12/31 10:14:53;;;;;;;2.38;1.30;;;10.70;99.90;;;;;;5012441;28;20063;-71
2023/12/31 10:17:20;;;;;;;2.45;1.55;;;10.70;99.90;;;;;;5027251;28;20629;-70
2023/12/31 10:19:46;;;;;;;4.35;1.60;;;10.70;99.90;;;;;;5022547;28;20022;-70
2023/12/31 10:22:13;;;;;;;4.30;1.77;;;10.70;99.90;;;;;;5036717;28;20086;-70
2023/12/31 10:24:40;;;;;;;3.00;1.83;;;10.70;99.90;;;;;;5038947;28;20021;-70
2023/12/31 10:27:08;;;;;;;4.97;1.80;;;10.60;99.90;;;;;;5033987;28;20486;-70
2023/12/31 10:29:35;;;;;;;3.10;1.50;;;10.60;99.90;;;;;;5033401;28;20590;-70
2023/12/31 10:32:04;;;;;;;4.63;1.92;;;10.60;99.90;;;;;;5041465;28;20029;-70
2023/12/31 10:34:30;;;;;;;2.50;1.50;;;10.60;99.90;;;;;;5041948;28;20033;-71
2023/12/31 10:37:05;;;;;;;4.10;1.45;;;10.60;99.90;;;;;;5056523;28;20188;-71
2023/12/31 10:39:38;;;;;;;5.00;1.83;;;10.60;99.90;;;;;;5041259;28;20131;-71
2023/12/31 10:42:06;;;;;;;4.47;1.77;;;10.60;99.90;;;;;;5042892;28;20025;-71
2023/12/31 10:44:36;;;;;;;2.63;1.48;;;10.60;99.90;;;;;;5036275;28;20052;-71
2023/12/31 10:47:12;;;;;;;3.35;1.55;;;10.60;99.90;;;;;;5043088;28;20056;-70
2023/12/31 10:49:43;;;;;;;4.13;1.40;;;10.60;99.90;;;;;;5048050;28;20027;-71
2023/12/31 10:52:13;;;;;;;5.97;1.45;;;10.60;99.90;;;;;;5039812;28;20029;-71
2023/12/31 10:54:42;;;;;;;2.35;1.38;;;10.60;99.90;;;;;;5036067;28;20035;-71
2023/12/31 10:57:09;;;;;;;3.42;1.58;;;10.60;99.90;;;;;;5034386;28;20029;-70
2023/12/31 10:59:38;;;;;;;3.22;1.65;;;10.60;99.90;;;;;;5036884;28;20365;-70
2023/12/31 11:02:04;;;;;;;3.28;1.90;;;10.60;99.90;;;;;;5030056;28;20021;-69
2023/12/31 11:04:31;;;;;;;2.30;1.35;;;10.60;99.90;;;;;;5038053;28;20389;-70
2023/12/31 11:07:00;;;;;;;4.43;1.38;;;10.60;99.90;;;;;;5046561;28;20067;-71
2023/12/31 11:09:27;;;;;;;1.90;1.00;;;10.60;99.90;;;;;;5062651;28;20025;-70
2023/12/31 11:11:54;;;;;;;2.70;1.08;;;10.60;99.90;;;;;;5050321;28;20057;-71
2023/12/31 11:14:28;;;;;;;2.10;1.20;;;10.50;99.90;;;;;;5049234;28;20020;-71
2023/12/31 11:17:12;;;;;;;2.45;1.08;;;10.40;99.90;;;;;;5060256;28;20470;-70
2023/12/31 11:19:54;;;;;;;2.33;0.98;;;10.30;99.90;;;;;;5019402;28;20053;-70
2023/12/31 11:22:45;;;;;;;3.22;1.10;;;10.20;99.90;;;;;;5022307;28;20028;-71
2023/12/31 11:25:10;;;;;;;1.80;1.00;;;10.20;99.90;;;;;;5063448;28;20490;-72
2023/12/31 11:27:37;;;;;;;3.65;1.38;;;10.20;99.90;;;;;;5061964;28;20039;-71
2023/12/31 11:30:03;;;;;;;4.75;1.30;;;10.20;99.90;;;;;;5051565;28;20025;-72
2023/12/31 11:32:31;;;;;;;3.58;0.95;;;10.10;99.90;;;;;;5027061;28;20017;-71
2023/12/31 11:34:58;;;;;;;31.83;28.42;;;10.10;99.90;;;;;;5042897;28;20184;-71
2023/12/31 11:37:24;;;;;;;4.85;1.05;;;10.10;99.90;;;;;;5043352;28;20039;-70
2023/12/31 11:39:55;;;;;;;2.75;1.10;;;10.10;99.90;;;;;;5032956;28;20856;-71
2023/12/31 11:42:21;;;;;;;2.83;1.05;;;10.10;99.90;;;;;;5037132;28;20048;-70
2023/12/31 11:44:47;;;;;;;1.52;0.75;;;10.10;99.90;;;;;;5017146;28;20168;-70
2023/12/31 11:47:26;;;;;;;6.53;1.23;;;10.10;99.90;;;;;;5031116;28;20123;-70
2023/12/31 11:49:58;;;;;;;2.10;0.90;;;10.10;99.90;;;;;;5038411;28;20385;-69
2023/12/31 11:52:41;;;;;;;2.50;1.10;;;10.10;99.90;;;;;;5036921;28;20033;-69
2023/12/31 11:55:16;;;;;;;2.33;1.30;;;10.10;99.90;;;;;;5012302;28;20132;-69
2023/12/31 11:57:44;;;;;;;3.15;0.98;;;10.10;99.90;;;;;;5046800;28;20044;-70
2023/12/31 12:00:11;;;;;;;5.15;1.20;;;10.10;99.90;;;;;;5041361;28;20029;-71
2023/12/31 12:02:37;;;;;;;2.05;0.80;;;10.20;99.90;;;;;;5039176;28;20099;-70
2023/12/31 12:05:04;;;;;;;2.58;0.80;;;10.40;99.90;;;;;;5042760;28;20020;-71
2023/12/31 12:07:30;;;;;;;4.25;1.30;;;10.50;99.90;;;;;;5055083;28;20036;-71
2023/12/31 12:09:56;;;;;;;4.15;1.20;;;10.50;99.90;;;;;;5043980;28;20440;-71
2023/12/31 12:12:24;;;;;;;2.30;1.10;;;10.40;99.90;;;;;;5021602;28;20025;-71
2023/12/31 12:14:50;;;;;;;4.10;1.55;;;10.40;99.90;;;;;;5036523;28;20156;-71
2023/12/31 12:17:16;;;;;;;3.15;1.30;;;10.40;99.90;;;;;;5041936;28;20466;-71
2023/12/31 12:19:41;;;;;;;3.28;1.58;;;10.40;99.90;;;;;;5031421;28;20052;-70
2023/12/31 12:22:07;;;;;;;1.92;1.08;;;10.40;99.90;;;;;;5050241;28;20029;-71
2023/12/31 12:24:33;;;;;;;3.72;1.10;;;10.40;99.90;;;;;;5030277;28;20448;-70
2023/12/31 12:27:00;;;;;;;3.58;1.20;;;10.40;99.90;;;;;;5028859;28;20025;-70
2023/12/31 12:29:27;;;;;;;3.60;1.25;;;10.40;99.90;;;;;;5029669;28;20402;-70
2023/12/31 12:31:53;;;;;;;5.47;1.45;;;10.40;99.90;;;;;;5011706;28;20033;-69
2023/12/31 12:34:18;;;;;;;3.17;1.27;;;10.50;99.90;;;;;;5042574;28;20108;-70
2023/12/31 12:36:46;;;;;;;4.30;1.42;;;10.50;99.90;;;;;;5040762;28;20450;-70
2023/12/31 12:39:22;;;;;;;4.93;1.10;;;10.60;99.90;;;;;;5032136;28;20190;-70
2023/12/31 12:41:50;;;;;;;4.00;1.00;;;10.60;99.90;;;;;;5029522;28;20025;-69
2023/12/31 12:44:17;;;;;;;3.78;1.60;;;10.60;99.90;;;;;;5017993;28;20019;-69
2023/12/31 12:46:44;;;;;;;3.15;0.90;;;10.70;99.90;;;;;;5037048;28;20552;-71